createdAt,value
2023-02-14T00:48:02.413Z,11.23
2023-02-14T00:50:31.122Z,10.50
2023-02-14T00:52:59.996Z,10.60
2023-02-14T00:55:28.973Z,15.00
2023-02-14T00:57:57.424Z,12.13
2023-02-14T01:47:17.658Z,8.70
2023-02-14T01:49:55.559Z,8.68
2023-02-14T01:52:28.325Z,7.80
2023-02-14T01:55:01.597Z,8.30
2023-02-14T01:57:36.220Z,9.38
2023-02-14T02:47:04.403Z,7.53
2023-02-14T02:50:00.359Z,4.95
2023-02-14T02:52:56.162Z,7.13
2023-02-14T02:55:52.860Z,5.82
2023-02-14T02:58:22.591Z,5.05
2023-02-14T03:45:19.562Z,5.80
2023-02-14T03:47:49.968Z,5.07
2023-02-14T03:50:21.328Z,5.20
2023-02-14T03:52:53.348Z,5.53
2023-02-14T03:55:31.485Z,4.20
2023-02-14T03:58:08.844Z,4.75
2023-02-14T04:45:35.656Z,3.78
2023-02-14T04:48:05.756Z,3.60
2023-02-14T04:50:34.486Z,4.82
2023-02-14T04:53:03.008Z,3.20
2023-02-14T04:55:31.427Z,3.38
2023-02-14T04:57:59.765Z,6.50
2023-02-14T05:47:57.405Z,4.88
2023-02-14T05:50:27.309Z,6.43
2023-02-14T05:52:56.479Z,4.07
2023-02-14T05:55:26.318Z,3.65
2023-02-14T05:57:54.716Z,4.18
2023-02-14T06:00:25.088Z,5.07
2023-02-14T06:02:53.444Z,3.88
2023-02-14T06:05:23.371Z,5.15
2023-02-14T06:07:52.316Z,4.57
2023-02-14T06:10:23.672Z,5.20
2023-02-14T06:12:54.117Z,4.93
2023-02-14T06:15:23.223Z,4.60
2023-02-14T06:17:56.131Z,4.80
2023-02-14T06:20:27.634Z,3.50
2023-02-14T06:22:56.730Z,5.07
2023-02-14T06:25:26.370Z,5.10
2023-02-14T06:27:58.384Z,5.07
2023-02-14T06:30:27.796Z,4.43
2023-02-14T06:32:56.321Z,4.10
2023-02-14T06:35:26.074Z,6.15
2023-02-14T06:37:54.425Z,4.78
2023-02-14T06:40:24.035Z,4.78
2023-02-14T06:42:52.713Z,3.20
2023-02-14T06:45:21.331Z,3.95
2023-02-14T06:47:49.899Z,4.15
2023-02-14T06:50:21.748Z,3.90
2023-02-14T06:52:52.011Z,4.93
2023-02-14T06:55:20.991Z,4.47
2023-02-14T06:57:49.916Z,4.93
2023-02-14T07:00:20.855Z,4.15
2023-02-14T07:02:49.477Z,3.67
2023-02-14T07:05:19.138Z,5.50
2023-02-14T07:07:47.866Z,5.63
2023-02-14T07:10:18.367Z,10.30
2023-02-14T07:12:46.998Z,7.40
2023-02-14T07:15:16.210Z,10.70
2023-02-14T07:17:45.100Z,9.10
2023-02-14T07:20:14.873Z,8.85
2023-02-14T07:22:43.283Z,8.45
2023-02-14T07:25:13.253Z,7.85
2023-02-14T07:27:43.376Z,7.68
2023-02-14T07:30:13.426Z,8.95
2023-02-14T07:32:42.569Z,6.80
2023-02-14T07:35:11.363Z,5.32
2023-02-14T07:37:40.079Z,9.75
2023-02-14T07:40:14.583Z,5.95
2023-02-14T07:42:45.629Z,6.28
2023-02-14T07:45:21.542Z,7.30
2023-02-14T07:47:51.811Z,6.85
2023-02-14T07:50:21.426Z,7.70
2023-02-14T07:52:50.294Z,6.35
2023-02-14T07:55:19.337Z,6.95
2023-02-14T07:57:50.598Z,6.43
2023-02-14T08:00:20.827Z,5.13
2023-02-14T08:02:49.495Z,5.50
2023-02-14T08:05:18.664Z,6.88
2023-02-14T08:07:47.306Z,6.25
2023-02-14T08:10:15.835Z,5.78
2023-02-14T08:13:03.568Z,7.43
2023-02-14T08:15:53.411Z,7.05
2023-02-14T08:18:24.083Z,4.78
2023-02-14T08:20:52.865Z,6.57
2023-02-14T08:23:22.158Z,6.28
2023-02-14T08:25:52.306Z,5.75
2023-02-14T08:28:24.290Z,5.55
2023-02-14T08:30:55.059Z,5.28
2023-02-14T08:33:23.903Z,5.85
2023-02-14T08:35:53.340Z,5.18
2023-02-14T08:38:21.829Z,5.95
2023-02-14T08:40:50.274Z,4.60
2023-02-14T08:43:18.665Z,7.78
2023-02-14T08:45:48.452Z,3.90
2023-02-14T08:48:18.239Z,5.03
2023-02-14T08:50:46.713Z,4.30
2023-02-14T08:53:15.556Z,8.43
2023-02-14T08:55:44.697Z,9.63
2023-02-14T08:58:13.138Z,5.15
2023-02-14T09:00:41.814Z,3.97
2023-02-14T09:03:10.668Z,6.38
2023-02-14T09:05:40.519Z,6.75
2023-02-14T09:08:09.186Z,5.18
2023-02-14T09:10:38.271Z,4.20
2023-02-14T09:13:07.332Z,5.18
2023-02-14T09:15:35.774Z,4.88
2023-02-14T09:18:04.860Z,4.90
2023-02-14T09:20:33.525Z,7.43
2023-02-14T09:23:03.619Z,5.50
2023-02-14T09:25:33.145Z,7.85
2023-02-14T09:28:02.087Z,5.93
2023-02-14T09:30:31.037Z,5.88
2023-02-14T09:33:00.307Z,3.92
2023-02-14T09:35:28.824Z,6.03
2023-02-14T09:38:17.057Z,4.13
2023-02-14T09:40:48.432Z,4.38
2023-02-14T09:43:24.973Z,4.72
2023-02-14T09:45:57.783Z,3.90
2023-02-14T09:48:31.020Z,9.18
2023-02-14T09:51:04.613Z,10.27
2023-02-14T09:53:36.646Z,7.55
2023-02-14T09:56:17.241Z,9.23
2023-02-14T09:58:54.125Z,6.63
2023-02-14T10:01:27.546Z,6.43
2023-02-14T10:04:22.493Z,5.90
2023-02-14T10:06:58.397Z,8.25
2023-02-14T10:09:50.220Z,6.88
2023-02-14T10:12:25.300Z,7.30
2023-02-14T10:14:57.271Z,7.32
2023-02-14T10:17:37.653Z,9.18
2023-02-14T10:20:19.856Z,10.20
2023-02-14T10:22:58.867Z,9.90
2023-02-14T10:25:33.595Z,6.78
2023-02-14T10:28:04.050Z,7.18
2023-02-14T10:30:40.453Z,7.57
2023-02-14T10:33:17.645Z,8.05
2023-02-14T10:35:50.253Z,7.97
2023-02-14T10:38:36.332Z,6.70
2023-02-14T10:41:28.565Z,9.15
2023-02-14T10:44:14.917Z,6.80
2023-02-14T10:46:50.528Z,6.00
2023-02-14T10:49:35.659Z,7.55
2023-02-14T10:52:16.599Z,6.55
2023-02-14T10:54:51.979Z,6.63
2023-02-14T10:57:26.772Z,5.97
2023-02-14T11:00:02.170Z,7.22
2023-02-14T11:02:37.552Z,7.38
2023-02-14T11:05:07.646Z,5.47
2023-02-14T11:07:36.450Z,5.70
2023-02-14T11:10:11.430Z,4.82
2023-02-14T11:12:42.555Z,7.28
2023-02-14T11:15:24.339Z,7.00
2023-02-14T11:18:16.807Z,6.35
2023-02-14T11:20:45.557Z,6.15
2023-02-14T11:23:22.560Z,5.70
2023-02-14T11:25:55.793Z,5.50
2023-02-14T11:28:24.735Z,4.63
2023-02-14T11:30:56.002Z,5.68
2023-02-14T11:33:36.258Z,4.07
2023-02-14T11:36:11.985Z,6.45
2023-02-14T11:38:42.446Z,5.18
2023-02-14T11:41:13.877Z,5.72
2023-02-14T11:43:49.302Z,4.20
2023-02-14T11:46:30.511Z,5.65
2023-02-14T11:49:02.907Z,6.05
2023-02-14T11:51:35.391Z,6.65
2023-02-14T11:54:06.541Z,7.85
2023-02-14T11:56:54.062Z,9.60
2023-02-14T11:59:36.199Z,8.45
2023-02-14T12:02:30.237Z,9.77
2023-02-14T12:05:02.609Z,8.45
2023-02-14T12:07:34.571Z,7.68
2023-02-14T12:10:27.015Z,9.60
2023-02-14T12:13:00.955Z,6.90
2023-02-14T12:15:40.822Z,7.38
2023-02-14T12:18:52.556Z,6.25
2023-02-14T12:21:43.369Z,7.53
2023-02-14T12:24:27.695Z,7.18
2023-02-14T12:27:07.456Z,6.72
2023-02-14T12:29:42.693Z,5.10
2023-02-14T12:32:22.045Z,7.18
2023-02-14T12:34:54.632Z,6.03
2023-02-14T12:37:41.765Z,6.55
2023-02-14T12:40:21.650Z,5.25
2023-02-14T12:43:12.107Z,7.03
2023-02-14T12:46:14.098Z,4.50
2023-02-14T12:49:03.121Z,5.93
2023-02-14T12:51:42.287Z,6.47
2023-02-14T12:54:31.248Z,7.63
2023-02-14T12:57:11.716Z,7.22
2023-02-14T12:59:52.249Z,4.72
2023-02-14T13:02:57.118Z,7.30
2023-02-14T13:05:40.891Z,6.60
2023-02-14T13:08:28.839Z,8.13
2023-02-14T13:11:06.529Z,5.00
2023-02-14T13:13:54.412Z,5.90
2023-02-14T13:16:31.658Z,4.85
2023-02-14T13:19:07.204Z,5.10
2023-02-14T13:21:39.804Z,5.93
2023-02-14T13:24:19.619Z,5.53
2023-02-14T13:26:53.923Z,5.20
2023-02-14T13:29:26.043Z,4.60
2023-02-14T13:32:00.198Z,4.70
2023-02-14T13:34:33.817Z,5.38
2023-02-14T13:37:05.784Z,4.35
2023-02-14T13:39:39.877Z,6.20
2023-02-14T13:42:08.828Z,5.75
2023-02-14T13:44:46.553Z,4.43
2023-02-14T13:47:21.234Z,3.75
2023-02-14T13:49:54.892Z,5.72
2023-02-14T13:52:43.949Z,4.72
2023-02-14T13:55:21.375Z,5.43
2023-02-14T13:58:03.053Z,4.55
2023-02-14T14:00:41.803Z,4.95
2023-02-14T14:03:15.916Z,5.43
2023-02-14T14:06:03.963Z,5.57
2023-02-14T14:08:45.343Z,5.35
2023-02-14T14:11:57.231Z,4.03
2023-02-14T14:14:36.540Z,5.00
2023-02-14T14:17:23.230Z,5.63
2023-02-14T14:19:52.330Z,4.95
2023-02-14T14:22:21.453Z,4.35
2023-02-14T14:24:59.378Z,4.93
2023-02-14T14:27:35.698Z,5.25
2023-02-14T14:30:07.312Z,6.95
2023-02-14T14:32:38.922Z,4.03
2023-02-14T14:35:20.986Z,6.40
2023-02-14T14:37:52.767Z,25.38
2023-02-14T14:40:26.859Z,34.88
2023-02-14T14:43:01.723Z,40.83
2023-02-14T14:45:32.515Z,35.85
2023-02-14T14:48:09.015Z,38.38
2023-02-14T14:50:39.764Z,29.60
2023-02-14T14:53:19.773Z,35.90
2023-02-14T14:55:52.411Z,30.67
2023-02-14T14:58:41.914Z,32.20
2023-02-14T15:01:21.421Z,28.08
2023-02-14T15:03:50.073Z,32.33
2023-02-14T15:06:22.351Z,25.20
2023-02-14T15:08:52.209Z,27.73
2023-02-14T15:11:41.207Z,28.58
2023-02-14T15:14:18.562Z,30.27
2023-02-14T15:16:50.163Z,23.98
2023-02-14T15:19:22.993Z,28.40
2023-02-14T15:21:52.098Z,25.98
2023-02-14T15:24:21.222Z,26.65
2023-02-14T15:26:53.416Z,25.00
2023-02-14T15:29:26.871Z,21.60
2023-02-14T15:31:57.606Z,20.35
2023-02-14T15:34:29.510Z,17.77
2023-02-14T15:37:03.535Z,18.52
2023-02-14T15:39:39.131Z,73.13
2023-02-14T15:42:26.174Z,60.22
2023-02-14T15:47:58.002Z,43.80
2023-02-14T15:50:29.994Z,38.70
2023-02-14T15:53:05.926Z,37.63
2023-02-14T15:55:35.802Z,103.07
2023-02-14T15:58:08.066Z,84.38
2023-02-14T16:00:37.586Z,98.97
2023-02-14T16:03:12.935Z,122.53
2023-02-14T16:05:48.580Z,98.65
2023-02-14T16:08:30.592Z,90.63
2023-02-14T16:11:08.845Z,256.15
2023-02-14T16:13:39.689Z,771.33
2023-02-14T16:16:10.371Z,672.05
2023-02-14T16:18:42.349Z,611.38
2023-02-14T16:21:18.423Z,593.25
2023-02-14T16:23:48.474Z,562.30
2023-02-14T16:26:17.005Z,540.33
2023-02-14T16:28:45.366Z,548.42
2023-02-14T16:31:17.732Z,512.70
2023-02-14T16:33:47.609Z,511.65
2023-02-14T16:36:23.497Z,503.80
2023-02-14T16:38:53.119Z,502.42
2023-02-14T16:41:26.488Z,490.10
2023-02-14T16:43:56.190Z,474.00
2023-02-14T16:46:29.632Z,451.35
2023-02-14T16:49:01.026Z,456.20
2023-02-14T16:51:33.384Z,442.55
2023-02-14T16:54:07.473Z,439.20
2023-02-14T16:56:43.315Z,442.15
2023-02-14T16:59:12.053Z,434.42
2023-02-14T17:01:41.090Z,420.33
2023-02-14T17:04:11.373Z,425.45
2023-02-14T17:06:47.355Z,405.15
2023-02-14T17:09:18.761Z,413.05
2023-02-14T17:11:51.521Z,405.45
2023-02-14T17:14:25.251Z,386.58
2023-02-14T17:16:55.848Z,386.02
2023-02-14T17:19:27.059Z,385.55
2023-02-14T17:21:58.722Z,369.75
2023-02-14T17:24:28.369Z,1962.65
2023-02-14T17:26:57.300Z,1255.07
2023-02-14T17:29:26.210Z,1173.72
2023-02-14T17:31:54.888Z,1119.70
2023-02-14T17:34:25.096Z,1062.47
2023-02-14T17:36:53.454Z,1034.85
2023-02-14T17:39:21.840Z,988.63
2023-02-14T17:41:50.754Z,964.13
2023-02-14T17:44:19.352Z,964.78
2023-02-14T17:46:47.918Z,951.08
2023-02-14T17:49:16.782Z,939.63
2023-02-14T17:51:47.129Z,912.13
2023-02-14T17:54:15.790Z,897.65
2023-02-14T17:56:44.392Z,897.30
2023-02-14T17:59:12.856Z,909.05
2023-02-14T18:01:43.250Z,900.03
2023-02-14T18:04:11.806Z,882.90
2023-02-14T18:06:40.350Z,874.67
2023-02-14T18:09:10.882Z,861.47
2023-02-14T18:11:42.427Z,858.25
2023-02-14T18:14:11.430Z,582.45
2023-02-14T18:16:41.012Z,339.20
2023-02-14T18:19:10.118Z,369.75
2023-02-14T18:21:40.384Z,335.02
2023-02-14T18:24:11.538Z,304.25
2023-02-14T18:26:42.159Z,304.25
2023-02-14T18:29:10.950Z,298.10
2023-02-14T18:31:42.485Z,294.40
2023-02-14T18:34:11.615Z,272.50
2023-02-14T18:36:42.715Z,253.65
2023-02-14T18:39:12.825Z,201.80
2023-02-14T18:41:41.262Z,194.88
2023-02-14T18:44:09.721Z,166.27
2023-02-14T18:46:38.322Z,103.13
2023-02-14T18:49:08.655Z,86.70
2023-02-14T18:51:39.670Z,84.45
2023-02-14T18:54:09.344Z,75.45
2023-02-14T18:56:39.940Z,69.57
2023-02-14T18:59:11.305Z,68.88
2023-02-14T19:01:43.453Z,69.95
2023-02-14T19:04:13.743Z,67.28
2023-02-14T19:06:44.197Z,61.65
2023-02-14T19:09:16.162Z,60.60
2023-02-14T19:11:46.755Z,58.60
2023-02-14T19:14:18.701Z,68.80
2023-02-14T19:16:50.821Z,65.57
2023-02-14T19:19:22.910Z,65.63
2023-02-14T19:21:52.192Z,60.85
2023-02-14T19:24:22.988Z,64.65
2023-02-14T19:26:54.685Z,64.72
2023-02-14T19:29:23.992Z,63.45
2023-02-14T19:31:55.340Z,64.60
2023-02-14T19:34:29.184Z,60.88
2023-02-14T19:37:00.630Z,55.85
2023-02-14T19:39:30.967Z,56.78
2023-02-14T19:42:01.146Z,58.22
2023-02-14T19:44:32.530Z,51.15
2023-02-14T19:47:04.117Z,49.10
2023-02-14T19:49:38.618Z,55.25
2023-02-14T19:52:14.176Z,46.75
2023-02-14T19:54:46.793Z,43.75
2023-02-14T19:57:17.799Z,45.42
2023-02-14T19:59:46.372Z,46.10
2023-02-14T20:02:20.953Z,49.40
2023-02-14T20:04:50.060Z,51.83
2023-02-14T20:07:19.648Z,48.90
2023-02-14T20:09:50.282Z,186.80
2023-02-14T20:12:22.647Z,498.25
2023-02-14T20:14:54.099Z,671.63
2023-02-14T20:17:22.490Z,709.90
2023-02-14T20:19:53.097Z,782.95
2023-02-14T20:22:23.053Z,549.05
2023-02-14T20:24:53.800Z,398.90
2023-02-14T20:27:25.845Z,387.27
2023-02-14T20:29:55.426Z,362.75
2023-02-14T20:32:24.147Z,319.85
2023-02-14T20:34:52.921Z,251.73
2023-02-14T20:37:21.725Z,197.75
2023-02-14T20:39:50.886Z,195.57
2023-02-14T20:42:19.212Z,184.88
2023-02-14T20:44:49.895Z,191.57
2023-02-14T20:47:18.548Z,172.13
2023-02-14T20:49:46.959Z,156.55
2023-02-14T20:52:18.011Z,107.72
2023-02-14T20:54:46.535Z,117.82
2023-02-14T20:57:15.020Z,105.50
2023-02-14T20:59:45.208Z,94.45
2023-02-14T21:02:15.831Z,99.68
2023-02-14T21:04:44.135Z,92.65
2023-02-14T21:07:13.006Z,88.70
2023-02-14T21:09:41.391Z,93.03
2023-02-14T21:12:11.227Z,81.90
2023-02-14T21:14:40.494Z,89.30
2023-02-14T21:17:09.498Z,82.65
2023-02-14T21:19:40.207Z,73.35
2023-02-14T21:22:08.900Z,65.47
2023-02-14T21:24:37.629Z,68.95
2023-02-14T21:27:08.010Z,59.72
2023-02-14T21:29:37.022Z,58.78
2023-02-14T21:32:06.629Z,50.63
2023-02-14T21:34:36.585Z,45.13
2023-02-14T21:37:06.605Z,54.67
2023-02-14T21:39:37.912Z,48.10
2023-02-14T21:42:07.616Z,48.28
2023-02-14T21:44:53.792Z,49.22
2023-02-14T21:47:22.680Z,51.00
2023-02-14T21:50:08.309Z,48.00
2023-02-14T21:52:38.219Z,46.17
2023-02-14T21:55:08.516Z,48.78
2023-02-14T21:57:37.078Z,43.40
2023-02-14T22:00:07.513Z,46.67
2023-02-14T22:02:40.360Z,47.05
2023-02-14T22:05:09.586Z,43.63
2023-02-14T22:07:39.755Z,45.97
2023-02-14T22:10:08.973Z,44.78
2023-02-14T22:12:37.770Z,46.42
2023-02-14T22:15:06.930Z,41.33
2023-02-14T22:17:36.071Z,47.90
2023-02-14T22:20:06.392Z,37.13
2023-02-14T22:22:35.209Z,41.10
2023-02-14T22:25:05.336Z,43.05
2023-02-14T22:27:38.489Z,44.67
2023-02-14T22:30:09.102Z,36.83
2023-02-14T22:32:37.934Z,39.13
2023-02-14T22:35:07.993Z,39.42
2023-02-14T22:37:36.386Z,38.92
2023-02-14T22:40:07.926Z,39.33
2023-02-14T22:42:36.362Z,39.03
2023-02-14T22:45:05.248Z,41.08
2023-02-14T22:47:33.712Z,40.40
2023-02-14T22:50:02.064Z,38.30
2023-02-14T22:52:31.828Z,41.00
2023-02-14T22:55:00.313Z,37.97
2023-02-14T22:57:31.791Z,36.50
2023-02-14T23:00:00.289Z,38.33
2023-02-14T23:02:28.634Z,41.33
2023-02-14T23:04:57.358Z,41.95
2023-02-14T23:07:25.760Z,35.28
2023-02-14T23:09:54.101Z,35.92
2023-02-14T23:12:40.014Z,33.95
2023-02-14T23:15:28.320Z,42.50
2023-02-14T23:18:26.177Z,32.17
2023-02-14T23:21:12.519Z,39.75
2023-02-14T23:23:40.873Z,35.42
2023-02-14T23:26:09.237Z,34.20
2023-02-14T23:28:37.589Z,33.50
2023-02-14T23:31:07.622Z,35.95
2023-02-14T23:33:36.042Z,38.20
2023-02-14T23:36:05.457Z,35.35
2023-02-14T23:38:33.832Z,40.28
2023-02-14T23:41:27.987Z,32.30
2023-02-14T23:43:56.368Z,35.13
2023-02-14T23:46:26.160Z,34.78
2023-02-14T23:48:54.494Z,33.55
2023-02-14T23:51:22.789Z,30.75
2023-02-14T23:53:53.512Z,33.67
2023-02-14T23:56:23.801Z,33.45
2023-02-14T23:58:52.324Z,31.13
